EW4560 Weather Reports


Display with metric or nautical units.
time (UTC)temp
F
wind
direction
speed
MPH
gust
MPH
rain 1hr
in
rain 24hr
in
rain mn
in
humidity
%
barometer
mb
20220819055300 66 294 0.0 0.0 0.00 0.00 0.00 50 1023.1
20220819054932 67 294 0.0 0.0 0.00 0.00 0.00 49 1023.3
20220819054807 66 294 0.0 0.0 0.00 0.00 0.00 50 1023.2
20220819054755 66 294 0.0 0.0 0.00 0.00 0.00 50 1023.1
20220819053942 67 294 0.0 0.0 0.00 0.00 0.00 49 1023.3
20220819053859 67 294 0.0 0.0 0.00 0.00 0.00 50 1023.3
20220819053618 68 294 0.0 0.0 0.00 0.00 0.00 48 1023.3
20220819053120 68 234 0.0 1.0 0.00 0.00 0.00 49 1023.3
20220819052436 68 293 0.0 1.0 0.00 0.00 0.00 48 1023.3
20220819051254 68 240 0.0 1.0 0.00 0.00 0.00 48 1023.3
20220819050253 68 160 0.0 0.0 0.00 0.00 0.00 48 1023.3
20220819045800 68 160 0.0 0.0 0.00 0.00 0.00 46 1023.3
20220819045754 68 160 0.0 0.0 0.00 0.00 0.00 48 1023.3
20220819045415 69 160 0.0 0.0 0.00 0.00 0.00 47 1023.3
20220819044931 69 160 0.0 0.0 0.00 0.00 0.00 47 1023.3
20220819044924 69 160 0.0 0.0 0.00 0.00 0.00 48 1023.3
20220819044051 72 281 0.0 1.0 0.00 0.00 0.00 43 1023.1
20220819043914 69 160 0.0 0.0 0.00 0.00 0.00 47 1023.3
20220819042803 70 147 0.0 0.0 0.00 0.00 0.00 46 1023.2
20220819042754 69 160 0.0 0.0 0.00 0.00 0.00 47 1023.3
20220819042254 69 160 0.0 0.0 0.00 0.00 0.00 46 1023.3
20220819041926 71 146 0.0 0.0 0.00 0.00 0.00 44 1023.1
20220819041922 70 147 0.0 0.0 0.00 0.00 0.00 45 1023.2
20220819041528 71 3 0.0 0.0 0.00 0.00 0.00 44 1023.1
20220819035253 72 281 0.0 1.0 0.00 0.00 0.00 42 1022.9
20220819034752 72 281 0.0 0.0 0.00 0.00 0.00 40 1022.9
20220819034258 72 196 0.0 0.0 0.00 0.00 0.00 40 1022.9
20220819034254 72 196 0.0 0.0 0.00 0.00 0.00 40 1022.9
20220819033427 73 196 0.0 0.0 0.00 0.00 0.00 38 1022.8
20220819033301 73 196 0.0 0.0 0.00 0.00 0.00 39 1022.8
20220819033254 73 196 0.0 0.0 0.00 0.00 0.00 39 1022.9
20220819031753 74 196 0.0 0.0 0.00 0.00 0.00 38 1022.7
20220819031301 74 196 0.0 0.0 0.00 0.00 0.00 37 1022.5
20220819031253 74 196 0.0 0.0 0.00 0.00 0.00 38 1022.6
20220819030752 74 196 0.0 0.0 0.00 0.00 0.00 36 1022.6
20220819025800 75 115 0.0 0.0 0.00 0.00 0.00 36 1022.2
20220819025752 75 196 0.0 0.0 0.00 0.00 0.00 36 1022.3
20220819025422 76 117 0.0 0.0 0.00 0.00 0.00 37 1022.1
20220819024923 76 117 0.0 0.0 0.00 0.00 0.00 37 1022.1
20220819024754 75 115 0.0 0.0 0.00 0.00 0.00 37 1022.1
20220819023424 76 117 0.0 1.0 0.00 0.00 0.00 34 1022.0
20220819023255 76 117 0.0 1.0 0.00 0.00 0.00 35 1022.0
20220819023250 76 117 0.0 0.0 0.00 0.00 0.00 35 1022.0
20220819022421 76 116 0.0 1.0 0.00 0.00 0.00 33 1021.7
20220819022044 77 117 0.0 0.0 0.00 0.00 0.00 33 1021.6
20220819021923 77 117 0.0 1.0 0.00 0.00 0.00 33 1021.7
20220819021750 76 117 0.0 1.0 0.00 0.00 0.00 33 1021.7
20220819021707 79 117 0.0 0.0 0.00 0.00 0.00 32 1021.5
20220819015757 78 117 0.0 0.0 0.00 0.00 0.00 31 1021.5
20220819015750 77 117 0.0 0.0 0.00 0.00 0.00 33 1021.6
20220819014923 80 117 0.0 1.0 0.00 0.00 0.00 28 1021.5
20220819014914 79 117 0.0 0.0 0.00 0.00 0.00 30 1021.5
20220819014414 80 117 0.0 1.0 0.00 0.00 0.00 30 1021.5
20220819013248 81 117 0.0 1.0 0.00 0.00 0.00 28 1021.5
20220819012253 83 124 0.0 1.0 0.00 0.00 0.00 27 1021.5
20220819012246 82 124 0.0 1.0 0.00 0.00 0.00 28 1021.5
20220819011911 83 124 0.0 3.0 0.00 0.00 0.00 27 1021.5
20220819011408 83 67 1.0 4.0 0.00 0.00 0.00 26 1021.5
20220819010914 83 48 1.0 4.0 0.00 0.00 0.00 25 1021.4
20220819010412 83 51 1.0 4.0 0.00 0.00 0.00 25 1021.5
20220819005251 83 32 0.0 2.0 0.00 0.00 0.00 25 1021.5
20220819005244 83 49 0.0 4.0 0.00 0.00 0.00 25 1021.5
20220819004410 84 49 1.0 4.0 0.00 0.00 0.00 25 1021.5
20220819004250 83 52 1.0 3.0 0.00 0.00 0.00 25 1021.5
20220819004244 83 27 1.0 3.0 0.00 0.00 0.00 26 1021.5
20220819004041 84 59 1.0 7.0 0.00 0.00 0.00 25 1021.6
20220819003535 85 49 1.0 3.0 0.00 0.00 0.00 24 1021.6
20220819002422 85 123 0.0 3.0 0.00 0.00 0.00 26 1021.6
20220819002243 84 49 1.0 7.0 0.00 0.00 0.00 25 1021.6
20220819000743 85 121 0.0 3.0 0.00 0.00 0.00 25 1021.7
20220819000252 85 117 0.0 1.0 0.00 0.00 0.00 24 1021.7
20220819000245 85 123 0.0 2.0 0.00 0.00 0.00 24 1021.7
20220818235925 85 79 1.0 5.0 0.00 0.00 0.00 24 1022.0
20220818235743 85 122 0.0 1.0 0.00 0.00 0.00 25 1021.7
20220818234747 85 48 0.0 2.0 0.00 0.00 0.00 24 1021.9
20220818234742 86 90 0.0 2.0 0.00 0.00 0.00 24 1021.9
20220818233740 85 51 1.0 5.0 0.00 0.00 0.00 24 1021.9
20220818233407 85 51 1.0 4.0 0.00 0.00 0.00 25 1022.0
20220818232911 86 112 0.0 3.0 0.00 0.00 0.00 24 1022.0
20220818232407 86 113 0.0 1.0 0.00 0.00 0.00 25 1022.0
20220818231246 85 117 0.0 3.0 0.00 0.00 0.00 25 1022.1
20220818231242 85 117 0.0 1.0 0.00 0.00 0.00 26 1022.1
20220818230410 87 70 0.0 4.0 0.00 0.00 0.00 25 1022.1
20220818230245 86 55 0.0 4.0 0.00 0.00 0.00 25 1022.1
20220818230240 85 77 1.0 4.0 0.00 0.00 0.00 24 1022.1
20220818224740 86 122 1.0 4.0 0.00 0.00 0.00 25 1022.2
20220818224240 86 62 1.0 4.0 0.00 0.00 0.00 25 1022.3
20220818223745 86 143 1.0 4.0 0.00 0.00 0.00 25 1022.3
20220818223738 86 263 1.0 4.0 0.00 0.00 0.00 24 1022.3
20220818223405 85 123 1.0 3.0 0.00 0.00 0.00 25 1022.3
20220818222246 85 288 2.0 6.0 0.00 0.00 0.00 24 1022.5
20220818222238 85 28 1.0 4.0 0.00 0.00 0.00 25 1022.3
20220818222037 85 40 2.0 9.0 0.00 0.00 0.00 25 1022.7
20220818221907 85 24 1.0 5.0 0.00 0.00 0.00 25 1022.5
20220818221903 85 352 2.0 6.0 0.00 0.00 0.00 25 1022.5
20220818221531 85 100 1.0 5.0 0.00 0.00 0.00 25 1022.6
20220818215924 86 63 1.0 7.0 0.00 0.00 0.00 26 1022.9
20220818215736 85 45 2.0 7.0 0.00 0.00 0.00 25 1022.7
20220818214735 85 15 2.0 9.0 0.00 0.00 0.00 25 1022.8
20220818214402 85 325 1.0 7.0 0.00 0.00 0.00 26 1022.9
20220818213245 84 302 2.0 7.0 0.00 0.00 0.00 24 1023.1
20220818213237 84 108 1.0 7.0 0.00 0.00 0.00 26 1023.1
20220818212243 85 41 2.0 7.0 0.00 0.00 0.00 25 1023.2
20220818212236 84 307 2.0 7.0 0.00 0.00 0.00 25 1023.1
20220818211242 84 331 1.0 4.0 0.00 0.00 0.00 25 1023.2
20220818211234 85 350 1.0 6.0 0.00 0.00 0.00 24 1023.1
20220818210533 84 23 2.0 6.0 0.00 0.00 0.00 25 1023.5
20220818210403 84 57 2.0 7.0 0.00 0.00 0.00 25 1023.3
20220818210243 84 328 2.0 6.0 0.00 0.00 0.00 25 1023.3
20220818210235 84 69 2.0 6.0 0.00 0.00 0.00 25 1023.2
20220818204735 84 334 1.0 7.0 0.00 0.00 0.00 25 1023.4
20220818203735 84 331 2.0 8.0 0.00 0.00 0.00 24 1023.5
20220818203416 84 357 2.0 4.0 0.00 0.00 0.00 27 1023.8
20220818203243 84 317 2.0 7.0 0.00 0.00 0.00 25 1023.8
20220818203234 84 36 2.0 8.0 0.00 0.00 0.00 25 1023.5
20220818202732 84 46 2.0 7.0 0.00 0.00 0.00 25 1023.6
20220818202532 83 37 2.0 7.0 0.00 0.00 0.00 26 1023.9
20220818201401 83 34 2.0 7.0 0.00 0.00 0.00 26 1023.9
20220818200238 83 78 2.0 6.0 0.00 0.00 0.00 28 1024.0
20220818200232 83 55 2.0 6.0 0.00 0.00 0.00 26 1023.9
20220818195855 83 67 1.0 5.0 0.00 0.00 0.00 29 1024.1
20220818194732 83 56 1.0 5.0 0.00 0.00 0.00 29 1024.2
20220818194237 82 359 3.0 11.0 0.00 0.00 0.00 29 1024.4
20220818194232 83 304 2.0 5.0 0.00 0.00 0.00 28 1024.4
20220818194025 82 318 2.0 5.0 0.00 0.00 0.00 30 1024.5
20220818193907 82 321 3.0 11.0 0.00 0.00 0.00 29 1024.5
20220818193730 83 54 2.0 7.0 0.00 0.00 0.00 30 1024.4
20220818192357 83 20 2.0 5.0 0.00 0.00 0.00 29 1024.6
20220818191237 83 316 1.0 8.0 0.00 0.00 0.00 30 1024.6
20220818191232 83 18 2.0 8.0 0.00 0.00 0.00 29 1024.6
20220818190230 82 339 1.0 6.0 0.00 0.00 0.00 29 1024.7
20220818185730 82 47 2.0 7.0 0.00 0.00 0.00 29 1024.7
20220818185235 82 84 1.0 7.0 0.00 0.00 0.00 29 1024.7
20220818185230 81 349 2.0 7.0 0.00 0.00 0.00 30 1024.7
20220818184243 81 40 2.0 6.0 0.00 0.00 0.00 31 1024.9
20220818184230 81 3 2.0 7.0 0.00 0.00 0.00 30 1024.8
20220818183904 81 40 2.0 6.0 0.00 0.00 0.00 32 1024.9
20220818183731 81 342 2.0 7.0 0.00 0.00 0.00 31 1024.8
20220818183231 81 294 1.0 5.0 0.00 0.00 0.00 31 1024.7
20220818183027 81 57 2.0 8.0 0.00 0.00 0.00 30 1024.8
20220818182354 81 39 1.0 6.0 0.00 0.00 0.00 31 1024.9
20220818180907 80 316 2.0 6.0 0.00 0.00 0.00 29 1024.9
20220818180732 81 345 3.0 8.0 0.00 0.00 0.00 30 1024.8
20220818180232 80 295 3.0 6.0 0.00 0.00 0.00 29 1024.9
20220818175737 81 359 2.0 6.0 0.00 0.00 0.00 28 1024.8
20220818175730 81 11 2.0 6.0 0.00 0.00 0.00 28 1024.9
20220818175533 80 338 2.0 7.0 0.00 0.00 0.00 31 1024.9
20220818174901 80 8 2.0 6.0 0.00 0.00 0.00 29 1024.9
20220818173736 80 307 3.0 7.0 0.00 0.00 0.00 29 1024.9
20220818173731 80 44 2.0 7.0 0.00 0.00 0.00 29 1024.9
20220818172231 80 358 2.0 7.0 0.00 0.00 0.00 31 1024.9
20220818171904 78 63 2.0 6.0 0.00 0.00 0.00 37 1024.9
20220818171732 79 17 2.0 8.0 0.00 0.00 0.00 31 1024.9
20220818171230 79 346 2.0 8.0 0.00 0.00 0.00 34 1024.9
20220818170736 79 290 1.0 5.0 0.00 0.00 0.00 37 1024.9
20220818170730 79 340 2.0 7.0 0.00 0.00 0.00 33 1024.9
20220818170523 78 340 2.0 6.0 0.00 0.00 0.00 35 1025.1
20220818170023 78 44 1.0 6.0 0.00 0.00 0.00 36 1024.9
20220818164358 78 19 1.0 3.0 0.00 0.00 0.00 34 1024.8
20220818164237 78 18 2.0 5.0 0.00 0.00 0.00 33 1024.9
20220818164230 78 47 1.0 4.0 0.00 0.00 0.00 35 1024.9
20220818163231 78 328 1.0 5.0 0.00 0.00 0.00 33 1025.1
20220818162231 78 51 1.0 3.0 0.00 0.00 0.00 34 1024.8
20220818161732 78 37 0.0 2.0 0.00 0.00 0.00 33 1024.7
20220818161354 78 135 0.0 1.0 0.00 0.00 0.00 35 1024.6
20220818161236 78 40 0.0 2.0 0.00 0.00 0.00 34 1024.7
20220818161228 78 42 0.0 2.0 0.00 0.00 0.00 34 1024.7
20220818160226 78 127 0.0 1.0 0.00 0.00 0.00 34 1024.6
20220818155851 78 136 0.0 1.0 0.00 0.00 0.00 37 1024.6
20220818154732 75 148 0.0 1.0 0.00 0.00 0.00 41 1024.6
20220818154725 77 136 0.0 1.0 0.00 0.00 0.00 40 1024.5
20220818154403 74 148 1.0 2.0 0.00 0.00 0.00 42 1024.6
20220818154329 76 137 0.0 1.0 0.00 0.00 0.00 38 1024.5
20220818152731 73 139 1.0 2.0 0.00 0.00 0.00 42 1024.5
20220818152723 74 150 1.0 2.0 0.00 0.00 0.00 42 1024.6
20220818152346 72 150 1.0 2.0 0.00 0.00 0.00 43 1024.5
20220818151224 71 205 0.0 2.0 0.00 0.00 0.00 43 1024.6
20220818150722 71 205 0.0 1.0 0.00 0.00 0.00 47 1024.6
20220818150221 70 176 1.0 2.0 0.00 0.00 0.00 49 1024.7
20220818145723 69 148 1.0 3.0 0.00 0.00 0.00 49 1024.7
20220818145223 68 154 1.0 3.0 0.00 0.00 0.00 52 1024.8
20220818144722 67 138 0.0 2.0 0.00 0.00 0.00 55 1024.7
20220818144346 63 141 0.0 1.0 0.00 0.00 0.00 61 1025.1
20220818144227 65 137 0.0 1.0 0.00 0.00 0.00 58 1024.8
20220818144221 65 152 0.0 1.0 0.00 0.00 0.00 57 1024.8
20220818143223 64 141 0.0 1.0 0.00 0.00 0.00 60 1024.9
20220818142220 62 304 0.0 0.0 0.00 0.00 0.00 64 1024.9
20220818141726 61 352 0.0 0.0 0.00 0.00 0.00 66 1025.1
20220818141721 61 354 0.0 0.0 0.00 0.00 0.00 66 1025.1
20220818141353 59 352 0.0 0.0 0.00 0.00 0.00 67 1025.1
20220818140722 60 352 0.0 0.0 0.00 0.00 0.00 67 1025.1
20220818140348 59 352 0.0 0.0 0.00 0.00 0.00 67 1025.2
20220818135847 58 352 0.0 0.0 0.00 0.00 0.00 68 1025.1
20220818134727 57 352 0.0 0.0 0.00 0.00 0.00 71 1025.1
20220818134722 58 352 0.0 0.0 0.00 0.00 0.00 71 1025.2
20220818134355 56 352 0.0 0.0 0.00 0.00 0.00 76 1025.2
20220818134220 58 352 0.0 0.0 0.00 0.00 0.00 71 1025.2
20220818133847 56 352 0.0 0.0 0.00 0.00 0.00 74 1025.2
20220818132846 55 353 0.0 0.0 0.00 0.00 0.00 76 1025.1
20220818132219 55 352 0.0 0.0 0.00 0.00 0.00 75 1025.2
20220818131844 55 352 0.0 0.0 0.00 0.00 0.00 76 1025.1
20220818131344 54 352 0.0 0.0 0.00 0.00 0.00 77 1025.1
20220818130717 54 352 0.0 0.0 0.00 0.00 0.00 75 1025.2
20220818130344 53 352 0.0 1.0 0.00 0.00 0.00 78 1025.2
20220818125844 53 352 0.0 1.0 0.00 0.00 0.00 77 1024.9
20220818124852 54 121 0.0 0.0 0.00 0.00 0.00 70 1024.8
20220818124715 53 121 0.0 0.0 0.00 0.00 0.00 75 1024.9
20220818124217 53 121 0.0 0.0 0.00 0.00 0.00 75 1024.9
20220818123722 53 121 0.0 0.0 0.00 0.00 0.00 74 1024.8
20220818123715 53 121 0.0 0.0 0.00 0.00 0.00 75 1024.9
20220818122723 53 121 0.0 0.0 0.00 0.00 0.00 72 1024.8
20220818122716 53 121 0.0 0.0 0.00 0.00 0.00 74 1024.8
20220818122341 54 121 0.0 0.0 0.00 0.00 0.00 72 1024.8
20220818121342 53 121 0.0 0.0 0.00 0.00 0.00 72 1024.8
20220818120842 53 121 0.0 0.0 0.00 0.00 0.00 76 1024.7
20220818120342 53 121 0.0 0.0 0.00 0.00 0.00 78 1024.7
20220818115220 53 121 0.0 0.0 0.00 0.00 0.00 77 1024.7
20220818115214 53 121 0.0 0.0 0.00 0.00 0.00 77 1024.7
20220818114836 53 121 0.0 0.0 0.00 0.00 0.00 76 1024.7
20220818113720 53 121 0.0 0.0 0.00 0.00 0.00 75 1024.8
20220818113713 53 121 0.0 0.0 0.00 0.00 0.00 76 1024.7
20220818112720 53 121 0.0 0.0 0.00 0.00 0.00 75 1024.8
20220818112713 53 121 0.0 0.0 0.00 0.00 0.00 75 1024.8
20220818112327 53 121 0.0 0.0 0.00 0.00 0.00 72 1024.9
20220818111713 53 121 0.0 0.0 0.00 0.00 0.00 75 1024.9
20220818110717 54 121 0.0 0.0 0.00 0.00 0.00 73 1024.9
20220818110711 54 121 0.0 0.0 0.00 0.00 0.00 72 1024.9
20220818110333 54 121 0.0 0.0 0.00 0.00 0.00 73 1024.9
20220818105841 54 121 0.0 0.0 0.00 0.00 0.00 72 1024.9
20220818105834 54 121 0.0 0.0 0.00 0.00 0.00 73 1024.9
20220818104837 54 121 0.0 0.0 0.00 0.00 0.00 73 1024.9
20220818104217 54 121 0.0 0.0 0.00 0.00 0.00 72 1024.8
20220818104211 54 121 0.0 0.0 0.00 0.00 0.00 71 1024.8
20220818102717 54 121 0.0 0.0 0.00 0.00 0.00 73 1024.9
20220818102711 54 121 0.0 0.0 0.00 0.00 0.00 72 1024.8
20220818102212 54 121 0.0 0.0 0.00 0.00 0.00 71 1024.8
20220818101212 54 121 0.0 0.0 0.00 0.00 0.00 74 1024.8
20220818100711 54 121 0.0 0.0 0.00 0.00 0.00 73 1024.8
20220818100216 55 121 0.0 0.0 0.00 0.00 0.00 71 1024.8
20220818100210 54 121 0.0 0.0 0.00 0.00 0.00 72 1024.8
20220818095216 55 121 0.0 0.0 0.00 0.00 0.00 69 1024.7
20220818095212 55 121 0.0 0.0 0.00 0.00 0.00 71 1024.8
20220818094209 55 121 0.0 0.0 0.00 0.00 0.00 70 1024.8
20220818093715 56 121 0.0 0.0 0.00 0.00 0.00 69 1024.9
20220818093708 55 121 0.0 0.0 0.00 0.00 0.00 69 1024.8
20220818093205 56 121 0.0 0.0 0.00 0.00 0.00 69 1024.9
20220818092212 56 121 0.0 0.0 0.00 0.00 0.00 67 1024.9
20220818092205 56 121 0.0 0.0 0.00 0.00 0.00 68 1024.9
20220818091207 56 121 0.0 0.0 0.00 0.00 0.00 67 1025.1
20220818090714 56 121 0.0 0.0 0.00 0.00 0.00 67 1024.9
20220818090707 56 121 0.0 0.0 0.00 0.00 0.00 68 1024.9
20220818090204 56 121 0.0 0.0 0.00 0.00 0.00 67 1024.9
20220818085324 56 121 0.0 0.0 0.00 0.00 0.00 68 1024.9
20220818085206 56 121 0.0 0.0 0.00 0.00 0.00 68 1025.1
20220818085202 56 121 0.0 0.0 0.00 0.00 0.00 68 1024.9
20220818084328 56 121 0.0 0.0 0.00 0.00 0.00 67 1024.9
20220818083706 56 121 0.0 0.0 0.00 0.00 0.00 67 1024.8
20220818083700 56 121 0.0 0.0 0.00 0.00 0.00 68 1024.8
20220818082830 56 121 0.0 0.0 0.00 0.00 0.00 67 1024.9
20220818082823 56 121 0.0 0.0 0.00 0.00 0.00 67 1024.9
20220818081830 57 121 0.0 0.0 0.00 0.00 0.00 65 1024.9
20220818081701 56 121 0.0 0.0 0.00 0.00 0.00 67 1024.9
20220818080701 57 121 0.0 0.0 0.00 0.00 0.00 65 1024.9
20220818075708 57 121 0.0 0.0 0.00 0.00 0.00 62 1025.1
20220818075701 57 121 0.0 0.0 0.00 0.00 0.00 66 1024.9
20220818075452 58 121 0.0 0.0 0.00 0.00 0.00 64 1025.3
20220818075333 58 121 0.0 0.0 0.00 0.00 0.00 63 1025.2
20220818075202 57 121 0.0 0.0 0.00 0.00 0.00 65 1024.9
20220818073206 57 121 0.0 0.0 0.00 0.00 0.00 64 1025.3
20220818073202 57 121 0.0 0.0 0.00 0.00 0.00 62 1025.3
20220818072823 57 121 0.0 0.0 0.00 0.00 0.00 63 1025.2
20220818072323 57 121 0.0 0.0 0.00 0.00 0.00 67 1025.2
20220818071706 57 121 0.0 0.0 0.00 0.00 0.00 67 1025.2
20220818071701 57 121 0.0 0.0 0.00 0.00 0.00 64 1025.2
20220818071438 57 121 0.0 0.0 0.00 0.00 0.00 66 1025.3
20220818070333 58 121 0.0 0.0 0.00 0.00 0.00 66 1025.2
20220818065211 58 121 0.0 0.0 0.00 0.00 0.00 60 1025.2
20220818065201 58 121 0.0 0.0 0.00 0.00 0.00 62 1025.3
20220818064823 59 121 0.0 0.0 0.00 0.00 0.00 61 1025.2
20220818063710 59 121 0.0 0.0 0.00 0.00 0.00 58 1025.4
20220818063701 59 121 0.0 0.0 0.00 0.00 0.00 59 1025.2
20220818063203 60 121 0.0 0.0 0.00 0.00 0.00 55 1025.3
20220818062701 59 121 0.0 0.0 0.00 0.00 0.00 56 1025.4
20220818061658 59 121 0.0 0.0 0.00 0.00 0.00 57 1025.5
20220818061157 59 121 0.0 0.0 0.00 0.00 0.00 57 1025.5
20220818060656 60 121 0.0 0.0 0.00 0.00 0.00 57 1025.4